This is the latest recevied weather packets stored in our database for station/object LU3HGB-WX. If no packets are shown the sender has not sent any weather packets the latest 10 day(s).
| Time | Temp. | Humidity | Pressure | Rain* | Wind** | Luminosity | Snow |
|---|---|---|---|---|---|---|---|
| 1777644759 | 18.89° C | 60% | 1013 hPa | 0 mm | - | 539 W/m² | - |
| 1777644460 | 18.33° C | 62% | 1013 hPa | 0 mm | - | 525 W/m² | - |
| 1777644160 | 17.78° C | 64% | 1013 hPa | 0 mm | - | 513 W/m² | - |
| 1777643859 | 17.22° C | 66% | 1013 hPa | 0 mm | - | 498 W/m² | - |
| 1777643560 | 17.22° C | 67% | 1013 hPa | 0 mm | - | 482 W/m² | - |
| 1777643260 | 17.22° C | 70% | 1013 hPa | 0 mm | - | 468 W/m² | - |
| 1777642960 | 17.22° C | 69% | 1013 hPa | 0 mm | - | 453 W/m² | - |
| 1777642660 | 17.22° C | 68% | 1013 hPa | 0 mm | - | 434 W/m² | - |
| 1777642359 | 16.67° C | 68% | 1013 hPa | 0 mm | - | 422 W/m² | - |
| 1777642060 | 16.67° C | 69% | 1013 hPa | 0 mm | - | 405 W/m² | - |
| 1777641760 | 16.67° C | 69% | 1013 hPa | 0 mm | - | 391 W/m² | - |
| 1777641460 | 16.11° C | 69% | 1013 hPa | 0 mm | - | 375 W/m² | - |
| 1777641159 | 16.11° C | 69% | 1013 hPa | 0 mm | - | 357 W/m² | - |
| 1777640860 | 16.67° C | 68% | 1012 hPa | 0 mm | - | 337 W/m² | - |
| 1777640560 | 16.67° C | 67% | 1012 hPa | 0 mm | - | 326 W/m² | - |
| 1777640260 | 16.67° C | 68% | 1012 hPa | 0 mm | - | 308 W/m² | - |
| 1777639959 | 16.11° C | 71% | 1012 hPa | 0 mm | - | 289 W/m² | - |
| 1777639659 | 15.56° C | 69% | 1013 hPa | 0 mm | - | 271 W/m² | - |
| 1777639362 | 14.44° C | 73% | 1013 hPa | 0 mm | - | 253 W/m² | - |
| 1777639060 | 13.89° C | 75% | 1012 hPa | 0 mm | - | 236 W/m² | - |
| 1777638760 | 13.33° C | 77% | 1012 hPa | 0 mm | - | 219 W/m² | - |
| 1777638459 | 12.22° C | 80% | 1012 hPa | 0 mm | - | 202 W/m² | - |
| 1777638160 | 11.67° C | 83% | 1012 hPa | 0 mm | - | 182 W/m² | - |
| 1777637860 | 10.56° C | 85% | 1012 hPa | 0 mm | - | 169 W/m² | - |
| 1777637560 | 9.44° C | 88% | 1012 hPa | 0 mm | - | 154 W/m² | - |
* Rain latest hour (hover to see other rain measurements)
** Current wind speed in m/s (hover to see current wind gust speed)